Time;durP1;ratioP1;P1;durP2;ratioP2;P2;SDS_P1;SDS_P2;PMS_P1;PMS_P2;Temp;Humidity;BMP_temperature;BMP_pressure;BME280_temperature;BME280_humidity;BME280_pressure;Samples;Min_cycle;Max_cycle;Signal;HPM_P1;HPM_P2
2023/12/10 00:00:58;;;;;;;2.42;0.65;;;10.40;74.10;;;5.81;100.00;94839.22;4990131;28;20029;-51
2023/12/10 00:03:24;;;;;;;1.52;0.75;;;10.30;74.10;;;5.77;100.00;94848.72;4991306;28;20045;-51
2023/12/10 00:05:51;;;;;;;3.60;0.85;;;10.30;74.20;;;5.78;100.00;94855.59;4992304;28;20061;-50
2023/12/10 00:08:17;;;;;;;3.50;0.90;;;10.30;74.30;;;5.74;100.00;94847.38;4991528;28;20021;-58
2023/12/10 00:10:43;;;;;;;2.60;0.70;;;10.30;74.30;;;5.71;100.00;94865.56;4991650;28;20416;-52
2023/12/10 00:13:09;;;;;;;0.82;0.50;;;10.20;74.30;;;5.66;100.00;94881.38;4992018;28;20022;-51
2023/12/10 00:15:37;;;;;;;2.03;0.68;;;10.20;74.20;;;5.64;100.00;94881.63;4991402;28;20140;-49
2023/12/10 00:18:05;;;;;;;0.95;0.60;;;10.20;74.10;;;5.60;100.00;94893.72;4994224;28;20033;-49
2023/12/10 00:20:31;;;;;;;3.20;0.60;;;10.10;74.10;;;5.52;100.00;94902.91;4990242;28;20028;-49
2023/12/10 00:22:57;;;;;;;2.35;0.77;;;10.00;74.00;;;5.45;100.00;94899.69;4991876;28;20113;-49
2023/12/10 00:25:25;;;;;;;1.10;0.40;;;10.00;74.00;;;5.39;100.00;94903.31;4991515;28;20130;-50
2023/12/10 00:27:52;;;;;;;4.63;0.60;;;10.00;74.00;;;5.41;100.00;94903.84;4990933;28;20095;-49
2023/12/10 00:30:18;;;;;;;1.85;0.50;;;9.90;74.00;;;5.38;100.00;94914.91;4991816;28;20454;-51
2023/12/10 00:32:44;;;;;;;2.30;0.50;;;9.90;74.00;;;5.40;100.00;94927.88;4990909;28;20097;-49
2023/12/10 00:35:10;;;;;;;1.20;0.55;;;9.90;74.00;;;5.32;100.00;94942.28;4991933;28;20439;-49
2023/12/10 00:37:36;;;;;;;2.53;0.50;;;9.90;74.00;;;5.30;100.00;94968.97;4991612;28;20025;-50
2023/12/10 00:40:03;;;;;;;1.15;0.55;;;9.90;74.00;;;5.28;100.00;94973.69;4990576;28;20031;-50
2023/12/10 00:42:29;;;;;;;5.15;0.70;;;9.80;74.00;;;5.20;100.00;94974.13;4991292;28;20029;-51
2023/12/10 00:44:55;;;;;;;7.18;0.70;;;9.80;74.00;;;5.16;100.00;94988.06;4990829;28;20084;-49
2023/12/10 00:47:21;;;;;;;2.17;0.52;;;9.70;73.90;;;5.13;100.00;94988.53;4991227;28;20072;-53
2023/12/10 00:49:47;;;;;;;1.85;0.77;;;9.70;74.00;;;5.14;100.00;94995.41;4991608;28;20362;-53
2023/12/10 00:52:13;;;;;;;3.13;0.80;;;9.60;74.00;;;5.13;100.00;95002.53;4990433;28;20503;-55
2023/12/10 00:54:40;;;;;;;4.18;0.70;;;9.60;74.10;;;5.10;100.00;95017.03;4991322;28;20116;-53
2023/12/10 00:57:06;;;;;;;3.28;0.60;;;9.60;74.20;;;5.03;100.00;95012.97;4990403;28;20112;-58
2023/12/10 00:59:32;;;;;;;7.97;1.02;;;9.60;75.00;;;5.04;100.00;95018.00;4989450;28;20087;-52
2023/12/10 01:01:58;;;;;;;7.03;0.70;;;9.50;74.30;;;5.04;100.00;95027.75;4990949;28;20025;-53
2023/12/10 01:04:24;;;;;;;4.45;1.08;;;9.50;74.40;;;5.00;100.00;95032.72;4990567;28;20024;-52
2023/12/10 01:06:51;;;;;;;5.22;1.40;;;9.50;74.50;;;5.05;100.00;95048.66;4990999;28;20443;-56
2023/12/10 01:09:16;;;;;;;5.88;1.00;;;9.50;74.60;;;5.07;100.00;95059.75;4990412;28;20481;-50
2023/12/10 01:11:42;;;;;;;6.43;1.60;;;9.50;74.60;;;5.08;100.00;95069.28;4991087;28;20036;-52
2023/12/10 01:14:08;;;;;;;2.15;0.60;;;9.60;75.50;;;5.08;100.00;95071.13;4991219;28;20391;-50
2023/12/10 01:16:34;;;;;;;5.22;0.85;;;9.60;75.50;;;5.14;100.00;95066.69;4992244;28;20025;-53
2023/12/10 01:19:00;;;;;;;3.05;0.75;;;9.60;74.70;;;5.18;100.00;95081.03;4991043;28;20026;-55
2023/12/10 01:21:26;;;;;;;2.83;0.60;;;9.60;74.60;;;5.20;100.00;95085.03;4990176;28;20029;-52
2023/12/10 01:23:55;;;;;;;7.80;0.70;;;9.70;74.70;;;5.20;100.00;95100.88;4991008;28;20061;-51
2023/12/10 01:26:22;;;;;;;6.05;0.90;;;9.70;74.60;;;5.18;100.00;95100.31;4990778;28;20032;-54
2023/12/10 01:28:48;;;;;;;6.20;0.95;;;9.70;74.50;;;5.18;100.00;95102.94;4990883;28;20033;-49
2023/12/10 01:31:14;;;;;;;8.95;1.33;;;9.70;74.40;;;5.17;100.00;95104.00;4991060;28;20022;-51
2023/12/10 01:33:41;;;;;;;5.63;1.02;;;9.70;74.30;;;5.19;100.00;95115.09;4992246;28;20029;-53
2023/12/10 01:36:08;;;;;;;9.40;1.20;;;9.70;74.20;;;5.20;100.00;95100.88;4994736;28;20057;-53
2023/12/10 01:38:34;;;;;;;4.43;1.10;;;9.80;74.20;;;5.26;100.00;95105.16;4994013;28;20109;-54
2023/12/10 01:41:00;;;;;;;6.22;1.27;;;9.80;74.10;;;5.28;100.00;95124.22;4994853;28;20144;-53
2023/12/10 01:43:26;;;;;;;10.20;1.52;;;9.80;74.10;;;5.23;100.00;95118.88;4994876;28;20112;-52
2023/12/10 01:45:53;;;;;;;9.13;1.60;;;9.80;73.90;;;5.26;100.00;95139.50;4993969;28;20029;-52
2023/12/10 01:48:23;;;;;;;7.38;1.50;;;9.80;73.80;;;5.23;100.00;95124.16;4994725;28;20118;-57
2023/12/10 01:50:50;;;;;;;10.63;1.55;;;9.80;73.70;;;5.21;100.00;95120.94;4993857;28;20167;-50
2023/12/10 01:53:17;;;;;;;7.10;1.55;;;9.80;73.60;;;5.16;100.00;95112.94;4991352;28;20077;-54
2023/12/10 01:55:45;;;;;;;7.82;1.40;;;9.70;73.40;;;5.13;100.00;95112.63;4994843;28;20025;-49
2023/12/10 01:58:12;;;;;;;12.40;1.50;;;9.80;73.40;;;5.13;100.00;95129.28;4993744;28;20021;-54
2023/12/10 02:00:38;;;;;;;8.10;1.40;;;9.70;73.30;;;5.10;100.00;95132.38;4990982;28;20025;-54
2023/12/10 02:03:05;;;;;;;11.40;1.77;;;9.70;73.20;;;5.07;100.00;95115.19;4993477;28;20025;-57
2023/12/10 02:05:31;;;;;;;8.68;1.42;;;9.70;73.10;;;5.01;100.00;95102.16;4992231;28;20082;-51
2023/12/10 02:07:58;;;;;;;5.85;1.45;;;9.70;73.10;;;4.97;100.00;95119.53;4994371;28;20032;-50
2023/12/10 02:10:24;;;;;;;6.60;1.40;;;9.60;73.00;;;4.97;100.00;95125.59;4992955;28;20068;-53
2023/12/10 02:12:54;;;;;;;10.30;1.60;;;9.60;73.00;;;4.94;100.00;95130.56;4994339;28;20069;-50
2023/12/10 02:15:22;;;;;;;10.07;1.38;;;9.60;73.00;;;4.88;100.00;95135.75;4993302;28;20029;-51
2023/12/10 02:17:49;;;;;;;8.20;1.60;;;9.50;72.90;;;4.84;100.00;95139.91;4996011;28;20053;-51
2023/12/10 02:20:18;;;;;;;7.78;1.50;;;9.50;73.00;;;4.82;100.00;95139.34;4994267;28;20026;-54
2023/12/10 02:23:14;;;;;;;10.13;2.17;;;9.40;73.00;;;4.77;100.00;95118.16;4992543;28;20120;-53
2023/12/10 02:25:40;;;;;;;9.75;1.88;;;9.40;72.90;;;4.70;100.00;95108.78;4987472;28;20037;-49
2023/12/10 02:28:09;;;;;;;15.07;1.70;;;9.30;73.00;;;4.71;100.00;95132.31;4992975;28;20018;-55
2023/12/10 02:30:36;;;;;;;10.73;1.58;;;9.30;73.10;;;4.68;100.00;95142.53;4988172;28;20030;-50
2023/12/10 02:33:02;;;;;;;10.07;1.50;;;9.30;73.10;;;4.72;100.00;95135.75;5007908;28;20083;-50
2023/12/10 02:35:28;;;;;;;9.65;2.17;;;9.30;73.30;;;4.72;100.00;95125.97;4993829;28;20025;-55
2023/12/10 02:37:55;;;;;;;10.00;2.13;;;9.30;73.30;;;4.77;100.00;95128.72;4993817;28;20389;-51
2023/12/10 02:40:22;;;;;;;13.82;1.58;;;9.40;73.40;;;4.79;100.00;95123.97;4992744;28;20431;-53
2023/12/10 02:42:48;;;;;;;11.93;1.80;;;9.40;73.50;;;4.84;100.00;95123.28;4993532;28;20099;-54
2023/12/10 02:45:16;;;;;;;11.57;2.00;;;9.40;73.50;;;4.87;100.00;95120.97;4992284;28;20087;-50
2023/12/10 02:47:42;;;;;;;11.57;2.35;;;9.50;73.50;;;4.97;100.00;95116.88;4993422;28;20057;-52
2023/12/10 02:50:09;;;;;;;10.82;2.67;;;9.50;73.60;;;5.06;100.00;95120.72;4993588;28;20500;-49
2023/12/10 02:52:36;;;;;;;11.40;1.98;;;9.60;73.70;;;5.10;100.00;95125.25;4990522;28;20113;-52
2023/12/10 02:55:04;;;;;;;9.43;2.15;;;9.60;73.60;;;5.10;100.00;95122.63;4993704;28;20057;-52
2023/12/10 02:57:30;;;;;;;13.88;2.47;;;9.70;73.50;;;5.17;100.00;95117.22;4992429;28;20156;-54
2023/12/10 02:59:56;;;;;;;19.73;2.63;;;9.70;73.40;;;5.25;100.00;95115.97;4991274;28;20048;-51
2023/12/10 03:02:22;;;;;;;13.10;2.35;;;9.70;73.30;;;5.29;100.00;95123.16;4993032;28;20028;-54
2023/12/10 03:04:48;;;;;;;14.85;2.53;;;9.80;73.20;;;5.33;100.00;95119.03;4993635;28;20033;-51
2023/12/10 03:07:14;;;;;;;11.10;1.88;;;9.80;73.10;;;5.36;100.00;95128.31;4993423;28;20053;-51
2023/12/10 03:09:41;;;;;;;13.65;2.17;;;9.90;73.10;;;5.45;100.00;95126.84;4992288;28;20496;-51
2023/12/10 03:12:08;;;;;;;11.38;2.40;;;9.90;73.00;;;5.48;100.00;95133.47;4993503;28;20088;-53
2023/12/10 03:14:33;;;;;;;13.60;2.58;;;10.00;72.80;;;5.49;100.00;95127.16;4992397;28;20025;-52
2023/12/10 03:16:59;;;;;;;16.58;2.78;;;10.00;72.70;;;5.51;100.00;95130.34;4993167;28;20477;-50
2023/12/10 03:19:25;;;;;;;14.05;2.00;;;10.00;72.50;;;5.53;100.00;95142.28;4992962;28;20021;-56
2023/12/10 03:21:51;;;;;;;16.95;2.30;;;10.10;72.30;;;5.54;100.00;95143.84;4991961;28;20017;-55
2023/12/10 03:24:17;;;;;;;13.23;2.08;;;10.10;72.30;;;5.55;100.00;95148.13;4992277;28;20030;-53
2023/12/10 03:26:43;;;;;;;15.10;2.22;;;10.20;72.20;;;5.55;100.00;95158.69;4991875;28;20048;-50
2023/12/10 03:29:09;;;;;;;10.02;1.70;;;10.20;72.00;;;5.59;100.00;95161.66;4992770;28;20026;-51
2023/12/10 03:31:34;;;;;;;14.55;2.20;;;10.20;71.80;;;5.58;100.00;95162.69;4993033;28;20025;-51
2023/12/10 03:34:00;;;;;;;14.35;2.70;;;10.20;71.60;;;5.57;100.00;95180.38;4992126;28;20060;-52
2023/12/10 03:36:26;;;;;;;10.77;1.95;;;10.20;71.50;;;5.54;100.00;95188.78;4992771;28;20402;-51
2023/12/10 03:38:52;;;;;;;14.82;2.20;;;10.20;71.40;;;5.54;100.00;95204.63;4991708;28;20040;-49
2023/12/10 03:41:18;;;;;;;12.05;2.17;;;10.20;71.30;;;5.54;100.00;95198.56;4992628;28;20034;-51
2023/12/10 03:43:44;;;;;;;12.77;2.33;;;10.20;71.30;;;5.53;100.00;95194.31;4992606;28;20029;-51
2023/12/10 03:46:10;;;;;;;14.77;2.40;;;10.20;71.20;;;5.55;100.00;95208.09;4991896;28;20483;-54
2023/12/10 03:48:36;;;;;;;9.30;1.50;;;10.20;71.10;;;5.54;100.00;95211.75;4992499;28;20030;-53
2023/12/10 03:51:01;;;;;;;14.02;2.22;;;10.20;71.10;;;5.54;100.00;95220.47;4991707;28;20527;-50
2023/12/10 03:53:27;;;;;;;13.38;2.45;;;10.20;71.00;;;5.52;100.00;95217.28;4992375;28;20026;-54
2023/12/10 03:55:53;;;;;;;13.20;2.05;;;10.30;71.10;;;5.53;100.00;95229.47;4991378;28;20088;-50
2023/12/10 03:58:19;;;;;;;9.93;1.85;;;10.30;71.00;;;5.50;100.00;95243.16;4991609;28;20392;-49
2023/12/10 04:00:45;;;;;;;12.98;2.42;;;10.30;70.90;;;5.48;100.00;95234.66;4990084;28;20029;-48
2023/12/10 04:03:11;;;;;;;15.52;2.13;;;10.30;70.80;;;5.46;100.00;95249.97;4991516;28;20029;-47
2023/12/10 04:05:37;;;;;;;12.27;2.30;;;10.20;70.70;;;5.46;100.00;95255.25;4992205;28;20033;-50
2023/12/10 04:08:03;;;;;;;13.30;2.13;;;10.30;70.80;;;5.46;100.00;95249.16;4992276;28;20032;-49
2023/12/10 04:10:29;;;;;;;9.52;2.22;;;10.20;70.70;;;5.36;100.00;95248.97;4990822;28;20068;-48
2023/12/10 04:12:55;;;;;;;11.63;1.88;;;10.20;70.50;;;5.32;100.00;95244.19;4992344;28;20053;-47
2023/12/10 04:15:21;;;;;;;16.23;2.72;;;10.10;70.60;;;5.26;100.00;95245.13;4991485;28;20769;-53
2023/12/10 04:17:48;;;;;;;18.52;2.78;;;10.10;70.70;;;5.26;100.00;95242.50;4994883;28;20021;-51
2023/12/10 04:20:14;;;;;;;12.15;2.65;;;10.00;70.70;;;5.21;100.00;95250.34;4991854;28;20032;-54
2023/12/10 04:22:40;;;;;;;16.83;2.72;;;9.90;70.70;;;5.11;100.00;95255.47;4991017;28;20067;-53
2023/12/10 04:25:07;;;;;;;10.65;2.28;;;9.90;70.80;;;5.04;100.00;95262.72;4991819;28;20021;-59
2023/12/10 04:27:33;;;;;;;13.65;2.20;;;9.80;70.80;;;4.97;100.00;95243.59;4990762;28;20037;-54
2023/12/10 04:29:59;;;;;;;10.07;2.13;;;9.70;70.90;;;4.96;100.00;95260.47;4991805;28;20072;-54
2023/12/10 04:32:25;;;;;;;9.52;2.05;;;9.70;71.20;;;4.93;100.00;95255.66;4990910;28;20120;-54
2023/12/10 04:34:50;;;;;;;8.77;2.22;;;9.60;71.50;;;4.88;100.00;95257.16;4991646;28;20026;-51
2023/12/10 04:37:17;;;;;;;16.55;3.13;;;9.60;71.50;;;4.90;100.00;95261.41;4991612;28;20029;-55
2023/12/10 04:39:44;;;;;;;10.45;2.33;;;9.60;71.60;;;4.85;100.00;95264.75;4990690;28;20404;-51
2023/12/10 04:42:11;;;;;;;12.15;2.28;;;9.50;71.60;;;4.81;100.00;95266.25;4991460;28;20416;-52
2023/12/10 04:44:36;;;;;;;16.55;2.72;;;9.50;71.70;;;4.83;100.00;95274.75;4990428;28;20025;-50
2023/12/10 04:47:02;;;;;;;14.77;2.33;;;9.50;71.80;;;4.81;100.00;95277.63;4991496;28;20045;-49
2023/12/10 04:49:29;;;;;;;15.80;2.30;;;9.40;71.80;;;4.83;100.00;95282.66;4991388;28;20101;-50
2023/12/10 04:51:54;;;;;;;19.30;2.55;;;9.50;71.90;;;4.79;100.00;95294.72;4990372;28;20022;-50
2023/12/10 04:54:20;;;;;;;11.40;2.13;;;9.40;71.80;;;4.73;100.00;95298.28;4991135;28;20071;-50
2023/12/10 04:56:46;;;;;;;16.90;2.42;;;9.40;71.80;;;4.69;100.00;95295.31;4990532;28;20053;-53
2023/12/10 04:59:12;;;;;;;12.63;2.05;;;9.40;71.80;;;4.67;100.00;95304.50;4991242;28;20029;-50
2023/12/10 05:01:38;;;;;;;12.20;1.90;;;9.30;71.80;;;4.66;100.00;95305.53;4989157;28;20018;-52
2023/12/10 05:04:04;;;;;;;11.50;2.00;;;9.30;71.90;;;4.64;100.00;95308.44;4990731;28;20048;-50
2023/12/10 05:06:30;;;;;;;11.75;1.88;;;9.30;71.90;;;4.61;100.00;95307.06;4990822;28;20040;-52
2023/12/10 05:08:56;;;;;;;14.98;2.15;;;9.30;71.90;;;4.58;100.00;95315.44;4990199;28;20091;-54
2023/12/10 05:11:22;;;;;;;11.60;2.00;;;9.30;71.90;;;4.58;100.00;95314.63;4991127;28;20075;-50
2023/12/10 05:13:48;;;;;;;11.00;2.38;;;9.20;71.90;;;4.55;100.00;95315.09;4991231;28;20030;-51
2023/12/10 05:16:14;;;;;;;14.73;1.95;;;9.20;71.90;;;4.51;100.00;95327.13;4990546;28;20109;-50
2023/12/10 05:18:40;;;;;;;11.35;1.60;;;9.20;71.90;;;4.49;100.00;95319.47;4994345;28;20495;-50
2023/12/10 05:21:07;;;;;;;13.65;2.30;;;9.20;71.90;;;4.47;100.00;95328.63;4990256;28;20029;-50
2023/12/10 05:23:32;;;;;;;11.60;1.70;;;9.10;71.80;;;4.46;100.00;95330.47;4987896;28;20030;-50
2023/12/10 05:25:58;;;;;;;8.50;2.05;;;9.20;72.10;;;4.51;100.00;95332.41;4991032;28;20037;-52
2023/12/10 05:28:24;;;;;;;12.43;2.05;;;9.20;72.40;;;4.52;100.00;95328.75;4990315;28;20053;-50
2023/12/10 05:30:50;;;;;;;9.70;1.60;;;9.20;72.30;;;4.49;100.00;95323.94;4991117;28;20033;-50
2023/12/10 05:33:16;;;;;;;12.15;1.83;;;9.20;72.30;;;4.47;100.00;95332.06;4990404;28;20026;-51
2023/12/10 05:35:42;;;;;;;10.07;1.77;;;9.20;72.30;;;4.48;100.00;95344.25;4990815;28;20080;-52
2023/12/10 05:38:09;;;;;;;9.75;2.17;;;9.20;72.40;;;4.52;100.00;95348.03;4991118;28;20026;-53
2023/12/10 05:40:35;;;;;;;13.32;2.20;;;9.20;72.40;;;4.54;100.00;95345.13;4990189;28;20231;-49
2023/12/10 05:43:01;;;;;;;11.30;2.20;;;9.20;72.50;;;4.59;100.00;95356.59;5005919;28;20090;-52
2023/12/10 05:45:28;;;;;;;13.95;1.85;;;9.20;72.50;;;4.62;100.00;95360.63;4989999;28;20034;-51
2023/12/10 05:47:54;;;;;;;10.88;1.70;;;9.30;72.50;;;4.64;100.00;95369.91;4990908;28;20033;-51
2023/12/10 05:50:20;;;;;;;8.95;1.42;;;9.30;72.50;;;4.65;100.00;95375.97;4990494;28;20366;-56
2023/12/10 05:52:46;;;;;;;12.55;2.13;;;9.30;72.40;;;4.66;100.00;95367.03;4990394;28;20388;-50
2023/12/10 05:55:12;;;;;;;10.80;1.98;;;9.30;72.30;;;4.63;100.00;95364.84;4990116;28;20026;-51
2023/12/10 05:57:38;;;;;;;18.63;2.05;;;9.30;72.20;;;4.62;100.00;95365.91;4990036;28;20033;-52
2023/12/10 06:00:06;;;;;;;14.07;2.30;;;9.30;72.20;;;4.61;100.00;95359.81;4988475;28;20027;-54
2023/12/10 06:02:32;;;;;;;11.88;2.33;;;9.30;72.20;;;4.62;100.00;95365.91;4982648;28;20060;-50
2023/12/10 06:04:59;;;;;;;8.05;1.73;;;9.30;72.20;;;4.60;100.00;95373.22;4990371;28;20434;-51
2023/12/10 06:07:24;;;;;;;14.27;2.17;;;9.30;72.00;;;4.59;100.00;95366.34;4990533;28;20030;-50
2023/12/10 06:09:50;;;;;;;8.70;2.40;;;9.30;71.90;;;4.57;100.00;95363.13;4989603;28;20052;-52
2023/12/10 06:12:16;;;;;;;10.55;2.08;;;9.30;72.00;;;4.58;100.00;95375.31;4990833;28;20068;-52
2023/12/10 06:14:42;;;;;;;6.90;1.83;;;9.30;72.10;;;4.61;100.00;95356.38;4989693;28;21018;-49
2023/12/10 06:17:09;;;;;;;10.10;1.98;;;9.20;72.10;;;4.60;100.00;95367.94;4993390;28;20041;-49
2023/12/10 06:19:35;;;;;;;9.50;1.95;;;9.20;72.00;;;4.60;100.00;95360.84;4992009;28;20076;-50
2023/12/10 06:22:02;;;;;;;14.40;2.08;;;9.30;72.00;;;4.57;100.00;95355.22;4988648;28;20041;-51
2023/12/10 06:24:28;;;;;;;10.07;2.00;;;9.20;71.90;;;4.54;100.00;95363.59;4993682;28;20026;-51
2023/12/10 06:26:54;;;;;;;13.60;1.70;;;9.20;72.00;;;4.52;100.00;95365.69;4993195;28;20034;-50
2023/12/10 06:29:20;;;;;;;9.70;2.05;;;9.20;71.90;;;4.50;100.00;95375.66;4994063;28;20490;-49
2023/12/10 06:31:46;;;;;;;12.20;1.88;;;9.20;71.80;;;4.46;100.00;95377.97;4994124;28;20025;-50
2023/12/10 06:34:12;;;;;;;7.85;1.58;;;9.10;71.80;;;4.44;100.00;95392.41;4992777;28;20477;-54
2023/12/10 06:36:37;;;;;;;11.88;2.20;;;9.20;72.00;;;4.49;100.00;95401.25;4993012;28;20109;-50
2023/12/10 06:39:04;;;;;;;11.18;1.77;;;9.20;72.10;;;4.55;100.00;95395.03;4986896;28;20026;-49
2023/12/10 06:41:30;;;;;;;13.98;1.90;;;9.20;72.10;;;4.56;100.00;95399.28;4993820;28;20035;-52
2023/12/10 06:43:55;;;;;;;11.15;1.88;;;9.20;72.00;;;4.56;100.00;95401.91;4991312;28;20026;-50
2023/12/10 06:46:21;;;;;;;10.07;1.92;;;9.20;72.10;;;4.57;100.00;95408.00;4992375;28;20385;-50
2023/12/10 06:48:47;;;;;;;8.48;2.03;;;9.20;72.10;;;4.56;100.00;95412.47;4979989;28;24100;-51
2023/12/10 06:51:14;;;;;;;9.45;1.85;;;9.10;72.20;;;4.56;100.00;95417.75;5015154;28;20022;-51
2023/12/10 06:53:40;;;;;;;13.07;1.90;;;9.10;72.30;;;4.57;100.00;95421.19;5010158;28;20108;-51
2023/12/10 06:56:08;;;;;;;16.05;2.15;;;9.10;72.40;;;4.54;100.00;95419.00;5012927;28;20108;-50
2023/12/10 06:58:34;;;;;;;9.55;1.90;;;9.10;72.40;;;4.54;100.00;95413.72;5010019;28;20049;-49
2023/12/10 07:01:02;;;;;;;7.53;1.40;;;9.10;72.50;;;4.53;100.00;95420.84;5010627;28;20025;-50
2023/12/10 07:03:28;;;;;;;16.20;2.08;;;9.10;72.70;;;4.50;100.00;95410.75;5012194;28;20030;-50
2023/12/10 07:05:54;;;;;;;9.98;2.08;;;9.00;72.70;;;4.49;100.00;95413.63;5012994;28;20457;-50
2023/12/10 07:08:20;;;;;;;8.20;1.40;;;9.00;72.80;;;4.54;100.00;95411.88;5012981;28;20013;-49
2023/12/10 07:10:46;;;;;;;9.98;1.55;;;9.00;73.20;;;4.57;100.00;95416.69;5012164;28;20041;-52
2023/12/10 07:13:13;;;;;;;9.15;1.70;;;9.00;73.30;;;4.57;100.00;95426.44;5012720;28;20111;-52
2023/12/10 07:15:42;;;;;;;12.10;1.83;;;9.10;73.50;;;4.57;100.00;95426.44;5010925;28;20492;-49
2023/12/10 07:18:08;;;;;;;11.73;2.70;;;9.00;73.40;;;4.59;100.00;95419.91;5016063;28;20036;-52
2023/12/10 07:20:34;;;;;;;13.38;1.92;;;9.10;73.60;;;4.58;100.00;95428.06;5011908;28;20029;-53
2023/12/10 07:23:00;;;;;;;13.63;1.52;;;9.10;73.60;;;4.59;100.00;95427.84;5012656;28;20111;-53
2023/12/10 07:25:26;;;;;;;12.30;1.75;;;9.10;73.50;;;4.60;100.00;95436.56;5008862;28;20033;-52
2023/12/10 07:27:52;;;;;;;7.88;1.75;;;9.10;73.50;;;4.60;100.00;95436.56;5011528;28;20508;-51
2023/12/10 07:30:18;;;;;;;9.48;1.45;;;9.10;73.50;;;4.60;100.00;95444.47;5012183;28;20056;-52
2023/12/10 07:32:44;;;;;;;6.20;1.38;;;9.10;73.40;;;4.61;100.00;95449.53;5011409;28;20049;-50
2023/12/10 07:35:10;;;;;;;12.10;1.77;;;9.20;73.40;;;4.58;100.00;95452.63;5012045;28;20037;-49
2023/12/10 07:37:36;;;;;;;15.73;2.00;;;9.20;73.40;;;4.62;100.00;95455.59;5012408;28;20032;-49
2023/12/10 07:40:02;;;;;;;12.05;2.58;;;9.20;73.30;;;4.64;100.00;95464.09;5004018;28;20376;-49
2023/12/10 07:42:28;;;;;;;12.25;1.67;;;9.30;73.40;;;4.68;100.00;95469.72;5012028;28;20029;-51
2023/12/10 07:44:54;;;;;;;10.60;1.95;;;9.30;73.40;;;4.73;100.00;95465.34;5008852;28;20033;-51
2023/12/10 07:47:20;;;;;;;8.10;1.70;;;9.40;73.50;;;4.86;100.00;95465.13;5010724;28;20060;-51
2023/12/10 07:49:46;;;;;;;12.32;1.67;;;9.40;73.60;;;4.92;100.00;95466.03;5012175;28;20044;-49
2023/12/10 07:52:12;;;;;;;6.25;1.48;;;9.50;73.50;;;4.93;100.00;95477.38;5011266;28;20033;-49
2023/12/10 07:54:38;;;;;;;12.55;2.30;;;9.50;73.40;;;4.97;100.00;95483.81;5011994;28;20424;-51
2023/12/10 07:57:04;;;;;;;13.23;1.60;;;9.60;73.40;;;4.96;100.00;95492.75;5007477;28;20033;-52
2023/12/10 07:59:30;;;;;;;9.50;1.60;;;9.70;73.30;;;4.95;100.00;95497.25;5008919;28;20500;-49
2023/12/10 08:01:56;;;;;;;12.85;2.17;;;9.70;73.20;;;5.00;100.00;95499.97;5010951;28;20037;-50
2023/12/10 08:04:22;;;;;;;13.43;2.17;;;9.70;73.10;;;5.04;100.00;95501.13;5010889;28;20025;-50
2023/12/10 08:06:48;;;;;;;9.23;2.00;;;9.80;73.20;;;5.13;100.00;95512.13;5011803;28;20388;-52
2023/12/10 08:09:14;;;;;;;8.07;1.55;;;9.80;73.00;;;5.22;100.00;95526.59;5010593;28;20404;-49
2023/12/10 08:11:40;;;;;;;9.85;2.30;;;9.90;73.00;;;5.29;100.00;95531.75;5011653;28;20036;-49
2023/12/10 08:14:05;;;;;;;11.15;1.55;;;9.90;72.90;;;5.29;100.00;95537.81;5011614;28;20025;-49
2023/12/10 08:16:31;;;;;;;20.33;2.03;;;10.00;72.80;;;5.34;100.00;95542.44;5013252;28;20186;-49
2023/12/10 08:18:57;;;;;;;16.42;2.33;;;10.00;72.80;;;5.37;100.00;95541.16;5011617;28;20029;-50
2023/12/10 08:21:24;;;;;;;8.90;2.03;;;10.00;72.70;;;5.39;100.00;95550.47;5010284;28;20029;-51
2023/12/10 08:23:51;;;;;;;9.75;1.80;;;10.00;72.60;;;5.34;100.00;95563.56;5011657;28;20032;-49
2023/12/10 08:26:17;;;;;;;11.38;1.63;;;10.10;72.70;;;5.34;100.00;95558.28;5011321;28;20468;-49
2023/12/10 08:28:48;;;;;;;11.93;1.80;;;10.10;72.60;;;5.41;100.00;95558.16;5010411;28;20393;-48
2023/12/10 08:31:14;;;;;;;6.95;1.85;;;10.10;72.50;;;5.40;100.00;95540.69;5011421;28;20503;-48
2023/12/10 08:33:44;;;;;;;14.70;2.40;;;10.20;72.50;;;5.41;100.00;95535.16;5010597;28;20029;-48
2023/12/10 08:36:10;;;;;;;11.55;2.20;;;10.20;72.40;;;5.48;100.00;95533.19;5008669;28;20021;-49
2023/12/10 08:38:36;;;;;;;8.00;1.63;;;10.30;72.30;;;5.56;100.00;95539.97;5010208;28;20032;-48
2023/12/10 08:41:02;;;;;;;12.65;2.17;;;10.40;72.20;;;5.69;100.00;95549.47;5011048;28;20034;-52
2023/12/10 08:43:29;;;;;;;11.30;1.80;;;10.50;72.10;;;5.76;100.00;95539.56;5007998;28;20102;-58
2023/12/10 08:45:55;;;;;;;11.90;1.75;;;10.60;72.10;;;5.82;100.00;95533.34;5011353;28;20033;-48
2023/12/10 08:48:21;;;;;;;15.25;1.95;;;10.70;71.90;;;5.87;100.00;95537.94;5012044;28;20547;-50
2023/12/10 08:50:47;;;;;;;10.70;1.95;;;10.80;71.80;;;5.91;100.00;95546.97;5010429;28;20033;-50
2023/12/10 08:53:13;;;;;;;9.82;1.70;;;10.90;71.60;;;5.95;100.00;95546.28;5011049;28;20499;-52
2023/12/10 08:55:39;;;;;;;10.02;2.15;;;10.90;71.50;;;5.96;100.00;95563.00;5010679;28;20037;-52
2023/12/10 08:58:05;;;;;;;8.02;2.35;;;11.00;71.20;;;6.06;100.00;95554.44;5009711;28;20075;-49
2023/12/10 09:00:30;;;;;;;7.65;1.65;;;11.10;71.10;;;6.16;100.00;95559.91;5008533;28;20025;-52
2023/12/10 09:02:56;;;;;;;12.80;1.80;;;11.20;71.00;;;6.19;100.00;95559.44;5005116;28;20021;-49
2023/12/10 09:05:22;;;;;;;9.95;2.10;;;11.20;70.70;;;6.24;100.00;95567.47;5010927;28;20044;-50
2023/12/10 09:07:48;;;;;;;12.38;2.38;;;11.30;70.40;;;6.26;100.00;95570.66;5001786;28;20479;-55
2023/12/10 09:10:14;;;;;;;7.72;1.60;;;11.20;71.00;;;6.23;100.00;95571.94;5008089;28;20125;-53
2023/12/10 09:12:40;;;;;;;9.23;1.90;;;11.20;70.20;;;6.22;100.00;95578.28;4994276;23;20049;-51
2023/12/10 09:15:09;;;;;;;7.70;2.10;;;11.20;70.20;;;6.26;100.00;95589.19;4969520;28;20480;-53
2023/12/10 09:17:35;;;;;;;9.60;2.25;;;11.20;70.20;;;6.23;100.00;95595.75;4973515;28;20010;-53
2023/12/10 09:20:01;;;;;;;13.43;2.28;;;11.10;70.00;;;6.22;100.00;95593.34;4969743;28;20030;-55
2023/12/10 09:22:27;;;;;;;11.40;2.25;;;11.20;70.00;;;6.28;100.00;95599.53;4970174;28;20026;-52
2023/12/10 09:24:53;;;;;;;12.10;2.20;;;11.20;70.00;;;6.37;100.00;95587.53;4972681;28;20030;-55
2023/12/10 09:27:19;;;;;;;15.32;2.30;;;11.30;70.20;;;6.39;100.00;95590.72;4978006;28;20030;-51
2023/12/10 09:29:45;;;;;;;10.35;2.17;;;11.30;70.20;;;6.34;100.00;95578.22;4977686;28;20022;-56
2023/12/10 09:32:12;;;;;;;11.70;2.38;;;11.40;70.10;;;6.33;100.00;95586.38;4980775;28;20029;-53
2023/12/10 09:34:39;;;;;;;11.30;2.00;;;11.40;69.80;;;6.34;100.00;95586.16;4974278;28;20560;-53
2023/12/10 09:37:05;;;;;;;9.98;1.88;;;11.40;69.60;;;6.37;100.00;95584.91;4971458;28;20034;-53
2023/12/10 09:39:31;;;;;;;12.65;2.92;;;11.40;69.30;;;6.52;100.00;95592.28;4969030;28;20390;-55
2023/12/10 09:41:57;;;;;;;10.38;2.03;;;11.50;69.30;;;6.56;100.00;95596.88;4970648;28;20080;-55
2023/12/10 09:44:23;;;;;;;13.23;2.22;;;11.60;69.40;;;6.56;100.00;95604.00;4977153;28;20021;-53
2023/12/10 09:46:49;;;;;;;10.82;1.95;;;11.60;69.20;;;6.55;100.00;95608.50;4969166;28;20465;-53
2023/12/10 09:49:15;;;;;;;11.38;2.30;;;11.60;69.00;;;6.60;100.00;95605.13;4991190;28;20097;-54
2023/12/10 09:51:41;;;;;;;12.40;2.28;;;11.60;68.90;;;6.56;99.60;95601.38;4970006;28;20157;-55
2023/12/10 09:54:07;;;;;;;12.55;2.20;;;11.60;68.90;;;6.49;97.99;95597.03;4973080;28;20648;-55
2023/12/10 09:56:33;;;;;;;14.70;2.95;;;11.60;68.50;;;6.53;98.92;95600.00;4968747;28;20106;-55
2023/12/10 09:58:59;;;;;;;8.75;2.13;;;11.50;68.30;;;6.52;96.86;95597.56;4976606;28;20025;-53
2023/12/10 10:01:25;;;;;;;11.60;1.95;;;11.60;68.10;;;6.60;98.43;95605.94;4980065;28;20029;-56
2023/12/10 10:03:51;;;;;;;14.13;2.03;;;11.60;68.10;;;6.61;97.16;95596.13;4972711;28;20022;-54
2023/12/10 10:06:17;;;;;;;12.93;2.20;;;11.60;68.00;;;6.62;96.91;95601.22;4978947;28;20056;-55
2023/12/10 10:08:43;;;;;;;10.18;1.85;;;11.60;67.90;;;6.67;96.93;95606.56;4977164;28;20064;-53
2023/12/10 10:11:09;;;;;;;12.52;2.78;;;11.70;67.80;;;6.64;97.14;95599.13;4969990;28;20046;-54
2023/12/10 10:13:35;;;;;;;9.68;2.63;;;11.70;67.70;;;6.66;98.34;95618.22;4974685;28;20038;-57
2023/12/10 10:16:12;;;;;;;7.57;1.83;;;11.70;67.60;;;6.59;94.11;95600.88;4972097;28;20109;-55